createdAt,value
2023-06-20T00:02:18.208Z,3.17
2023-06-20T00:04:45.726Z,2.90
2023-06-20T00:07:13.246Z,3.10
2023-06-20T00:09:40.870Z,3.17
2023-06-20T00:12:08.809Z,2.95
2023-06-20T00:14:38.745Z,2.58
2023-06-20T00:17:06.768Z,2.85
2023-06-20T00:19:34.485Z,2.53
2023-06-20T00:22:05.062Z,3.55
2023-06-20T00:24:34.020Z,2.80
2023-06-20T00:27:02.416Z,3.13
2023-06-20T00:29:30.605Z,2.97
2023-06-20T00:31:58.577Z,3.03
2023-06-20T00:34:26.724Z,3.00
2023-06-20T00:36:54.578Z,3.38
2023-06-20T00:39:22.281Z,2.60
2023-06-20T00:41:50.249Z,2.60
2023-06-20T00:44:17.979Z,2.67
2023-06-20T00:46:45.596Z,2.95
2023-06-20T00:49:13.596Z,2.60
2023-06-20T00:51:41.591Z,2.83
2023-06-20T00:56:39.939Z,2.85
2023-06-20T00:59:07.489Z,3.03
2023-06-20T01:01:35.245Z,3.15
2023-06-20T01:04:04.610Z,2.58
2023-06-20T01:07:01.098Z,2.90
2023-06-20T01:09:45.882Z,2.97
2023-06-20T01:12:38.421Z,2.45
2023-06-20T01:15:30.218Z,3.85
2023-06-20T01:18:12.904Z,3.88
2023-06-20T01:20:47.417Z,2.70
2023-06-20T01:23:26.789Z,2.65
2023-06-20T01:26:03.131Z,2.70
2023-06-20T01:28:42.966Z,2.63
2023-06-20T01:31:19.750Z,3.05
2023-06-20T01:33:55.001Z,3.50
2023-06-20T01:36:23.999Z,3.22
2023-06-20T01:38:58.130Z,3.05
2023-06-20T01:41:27.750Z,2.80
2023-06-20T01:43:57.470Z,2.67
2023-06-20T01:46:25.974Z,2.95
2023-06-20T01:48:55.078Z,2.78
2023-06-20T01:51:23.835Z,2.92
2023-06-20T01:53:52.256Z,2.78
2023-06-20T01:56:20.261Z,2.10
2023-06-20T01:58:50.034Z,2.90
2023-06-20T02:01:19.192Z,2.67
2023-06-20T02:03:49.140Z,2.70
2023-06-20T02:08:45.232Z,3.15
2023-06-20T02:11:15.723Z,3.00
2023-06-20T02:13:44.416Z,2.88
2023-06-20T02:16:13.559Z,2.55
2023-06-20T02:18:41.276Z,2.77
2023-06-20T02:21:14.406Z,2.72
2023-06-20T02:23:43.561Z,2.88
2023-06-20T02:26:17.511Z,2.83
2023-06-20T02:28:50.619Z,2.80
2023-06-20T02:31:22.626Z,3.28
2023-06-20T02:33:54.836Z,2.50
2023-06-20T02:36:28.034Z,2.53
2023-06-20T02:38:57.001Z,2.90
2023-06-20T02:41:25.033Z,3.00
2023-06-20T02:43:52.784Z,2.92
2023-06-20T02:47:03.963Z,3.78
2023-06-20T02:49:45.134Z,2.80
2023-06-20T02:52:49.577Z,2.63
2023-06-20T02:55:36.061Z,2.55
2023-06-20T02:58:14.190Z,3.00
2023-06-20T03:00:50.282Z,3.53
2023-06-20T03:03:22.586Z,3.00
2023-06-20T03:05:52.102Z,2.88
2023-06-20T03:08:22.196Z,3.28
2023-06-20T03:10:50.992Z,3.30
2023-06-20T03:13:18.886Z,3.10
2023-06-20T03:15:52.147Z,3.13
2023-06-20T03:18:21.124Z,3.83
2023-06-20T03:20:49.849Z,2.97
2023-06-20T03:23:17.982Z,2.97
2023-06-20T03:25:46.594Z,3.05
2023-06-20T03:28:14.326Z,3.40
2023-06-20T03:30:46.038Z,3.08
2023-06-20T03:33:13.639Z,3.28
2023-06-20T03:35:41.354Z,3.08
2023-06-20T03:38:09.553Z,3.25
2023-06-20T03:40:37.098Z,3.72
2023-06-20T03:43:04.797Z,3.80
2023-06-20T03:45:33.140Z,4.43
2023-06-20T03:48:00.815Z,3.72
2023-06-20T03:50:29.171Z,3.58
2023-06-20T03:52:58.623Z,3.95
2023-06-20T03:55:26.703Z,4.00
2023-06-20T03:57:56.822Z,3.27
2023-06-20T04:00:24.495Z,3.47
2023-06-20T04:02:52.307Z,3.40
2023-06-20T04:05:20.091Z,3.38
2023-06-20T04:07:47.646Z,4.05
2023-06-20T04:10:15.520Z,3.10
2023-06-20T04:12:43.662Z,3.42
2023-06-20T04:15:11.884Z,3.35
2023-06-20T04:17:42.107Z,3.30
2023-06-20T04:20:14.072Z,3.83
2023-06-20T04:22:45.994Z,3.28
2023-06-20T04:25:17.633Z,3.63
2023-06-20T04:27:54.774Z,3.67
2023-06-20T04:30:24.436Z,3.35
2023-06-20T04:32:55.273Z,3.65
2023-06-20T04:35:23.472Z,3.42
2023-06-20T04:37:52.580Z,3.83
2023-06-20T04:40:22.610Z,3.90
2023-06-20T04:42:50.285Z,3.42
2023-06-20T04:45:17.845Z,3.30
2023-06-20T04:47:45.639Z,3.55
2023-06-20T04:50:13.373Z,4.03
2023-06-20T04:52:40.980Z,4.10
2023-06-20T04:55:08.996Z,3.80
2023-06-20T04:57:36.655Z,3.70
2023-06-20T05:00:08.923Z,4.68
2023-06-20T05:02:37.461Z,4.18
2023-06-20T05:05:06.793Z,4.68
2023-06-20T05:07:35.328Z,4.13
2023-06-20T05:10:03.248Z,4.75
2023-06-20T05:12:30.985Z,3.80
2023-06-20T05:14:58.646Z,3.85
2023-06-20T05:17:26.649Z,3.80
2023-06-20T05:19:54.616Z,4.07
2023-06-20T05:22:22.917Z,4.05
2023-06-20T05:24:50.494Z,4.35
2023-06-20T05:27:18.098Z,4.65
2023-06-20T05:29:47.206Z,4.70
2023-06-20T05:32:15.162Z,4.00
2023-06-20T05:34:42.800Z,4.18
2023-06-20T05:37:10.416Z,5.03
2023-06-20T05:39:38.078Z,5.20
2023-06-20T05:42:05.993Z,5.38
2023-06-20T05:44:33.688Z,4.85
2023-06-20T05:47:01.296Z,4.53
2023-06-20T05:49:29.045Z,4.68
2023-06-20T05:51:57.888Z,5.03
2023-06-20T05:54:26.017Z,5.68
2023-06-20T05:56:54.248Z,4.88
2023-06-20T05:59:21.835Z,5.00
2023-06-20T06:01:49.443Z,5.68
2023-06-20T06:04:17.534Z,5.38
2023-06-20T06:06:45.736Z,5.45
2023-06-20T06:09:13.324Z,4.63
2023-06-20T06:11:40.982Z,5.30
2023-06-20T06:14:08.887Z,5.75
2023-06-20T06:16:36.496Z,5.60
2023-06-20T06:19:05.149Z,6.55
2023-06-20T06:21:33.523Z,5.97
2023-06-20T06:24:01.103Z,6.28
2023-06-20T06:26:29.261Z,6.57
2023-06-20T06:28:56.896Z,7.00
2023-06-20T06:31:27.708Z,7.38
2023-06-20T06:33:58.636Z,6.88
2023-06-20T06:36:32.381Z,7.60
2023-06-20T06:39:01.043Z,7.40
2023-06-20T06:41:29.061Z,6.95
2023-06-20T06:43:56.901Z,7.40
2023-06-20T06:46:24.725Z,7.18
2023-06-20T06:48:52.409Z,7.00
2023-06-20T06:51:20.155Z,6.60
2023-06-20T06:53:47.793Z,7.05
2023-06-20T06:56:15.385Z,7.32
2023-06-20T06:58:43.491Z,8.20
2023-06-20T07:01:11.233Z,7.15
2023-06-20T07:03:38.973Z,7.47
2023-06-20T07:06:06.729Z,7.85
2023-06-20T07:08:34.355Z,8.18
2023-06-20T07:11:02.075Z,7.82
2023-06-20T07:13:29.653Z,8.48
2023-06-20T07:15:57.426Z,9.82
2023-06-20T07:18:25.162Z,9.15
2023-06-20T07:20:52.803Z,9.18
2023-06-20T07:23:21.031Z,8.43
2023-06-20T07:25:48.566Z,8.30
2023-06-20T07:28:16.216Z,8.65
2023-06-20T07:30:43.782Z,8.50
2023-06-20T07:33:11.533Z,8.63
2023-06-20T07:35:39.390Z,8.45
2023-06-20T07:38:07.078Z,8.48
2023-06-20T07:40:35.234Z,8.68
2023-06-20T07:43:02.866Z,8.13
2023-06-20T07:45:30.596Z,8.77
2023-06-20T07:47:58.613Z,9.57
2023-06-20T07:50:26.157Z,9.73
2023-06-20T07:52:53.843Z,9.63
2023-06-20T07:55:29.913Z,9.02
2023-06-20T07:57:59.916Z,8.95
2023-06-20T08:00:29.388Z,10.02
2023-06-20T08:02:57.703Z,10.13
2023-06-20T08:05:25.973Z,9.85
2023-06-20T08:07:53.801Z,8.73
2023-06-20T08:10:21.766Z,8.63
2023-06-20T08:12:49.318Z,8.85
2023-06-20T08:15:17.030Z,11.00
2023-06-20T08:17:44.916Z,10.48
2023-06-20T08:20:13.547Z,11.50
2023-06-20T08:22:41.208Z,11.18
2023-06-20T08:25:09.413Z,12.07
2023-06-20T08:27:36.969Z,12.63
2023-06-20T08:30:05.077Z,11.20
2023-06-20T08:32:33.028Z,10.48
2023-06-20T08:35:00.738Z,10.75
2023-06-20T08:37:29.410Z,10.40
2023-06-20T08:39:57.817Z,9.60
2023-06-20T08:42:25.457Z,7.63
2023-06-20T08:44:58.372Z,7.68
2023-06-20T08:47:27.062Z,8.38
2023-06-20T08:49:54.741Z,6.80
2023-06-20T08:52:48.571Z,7.40
2023-06-20T08:55:16.944Z,7.28
2023-06-20T08:57:48.096Z,7.25
2023-06-20T09:00:20.775Z,7.03
2023-06-20T09:02:55.958Z,7.22
2023-06-20T09:05:24.048Z,7.60
2023-06-20T09:07:53.245Z,7.20
2023-06-20T09:10:24.575Z,6.60
2023-06-20T09:12:53.680Z,5.95
2023-06-20T09:15:24.007Z,6.70
2023-06-20T09:17:56.473Z,7.22
2023-06-20T09:20:29.103Z,8.00
2023-06-20T09:22:57.668Z,8.20
2023-06-20T09:25:27.517Z,7.57
2023-06-20T09:27:56.297Z,8.40
2023-06-20T09:30:26.230Z,6.45
2023-06-20T09:32:54.507Z,6.45
2023-06-20T09:35:22.447Z,6.20
2023-06-20T09:37:53.170Z,6.15
2023-06-20T09:40:21.884Z,6.72
2023-06-20T09:42:49.484Z,6.43
2023-06-20T09:45:18.128Z,5.85
2023-06-20T09:47:46.633Z,6.97
2023-06-20T09:50:20.091Z,6.70
2023-06-20T09:52:52.446Z,6.97
2023-06-20T09:55:21.862Z,5.68
2023-06-20T09:57:52.217Z,6.68
2023-06-20T10:00:20.964Z,6.90
2023-06-20T10:02:49.635Z,6.25
2023-06-20T10:05:22.073Z,5.85
2023-06-20T10:07:50.575Z,5.05
2023-06-20T10:10:19.039Z,4.55
2023-06-20T10:12:47.863Z,3.60
2023-06-20T10:15:16.571Z,3.45
2023-06-20T10:17:49.328Z,2.88
2023-06-20T10:20:29.680Z,3.60
2023-06-20T10:23:04.968Z,3.30
2023-06-20T10:25:33.763Z,3.33
2023-06-20T10:28:06.450Z,3.30
2023-06-20T10:30:51.886Z,3.47
2023-06-20T10:33:32.682Z,3.95
2023-06-20T10:36:04.084Z,3.30
2023-06-20T10:38:38.890Z,3.75
2023-06-20T10:41:22.530Z,4.05
2023-06-20T10:44:28.363Z,3.40
2023-06-20T10:46:55.976Z,3.90
2023-06-20T10:49:24.126Z,3.55
2023-06-20T10:51:55.186Z,3.67
2023-06-20T10:54:23.081Z,3.83
2023-06-20T10:56:51.012Z,4.30
2023-06-20T10:59:21.200Z,4.63
2023-06-20T11:04:18.159Z,4.47
2023-06-20T11:06:48.593Z,4.70
2023-06-20T11:09:20.861Z,2.53
2023-06-20T11:11:49.620Z,2.47
2023-06-20T11:14:20.837Z,2.85
2023-06-20T11:16:50.192Z,3.20
2023-06-20T11:19:35.860Z,3.20
2023-06-20T11:22:05.604Z,2.80
2023-06-20T11:24:36.639Z,2.50
2023-06-20T11:27:15.165Z,1.90
2023-06-20T11:29:43.758Z,2.08
2023-06-20T11:32:12.826Z,1.92
2023-06-20T11:35:04.176Z,1.70
2023-06-20T11:37:32.108Z,1.90
2023-06-20T11:39:59.869Z,1.92
2023-06-20T11:42:37.161Z,2.30
2023-06-20T11:45:09.482Z,2.08
2023-06-20T11:47:37.819Z,2.83
2023-06-20T11:50:06.217Z,2.00
2023-06-20T11:52:36.041Z,1.95
2023-06-20T11:55:05.581Z,1.80
2023-06-20T11:57:33.626Z,1.80
2023-06-20T12:00:07.334Z,1.92
2023-06-20T12:02:40.174Z,2.03
2023-06-20T12:05:08.489Z,1.60
2023-06-20T12:07:54.264Z,1.90
2023-06-20T12:10:25.561Z,2.08
2023-06-20T12:12:53.629Z,1.95
2023-06-20T12:15:21.221Z,2.50
2023-06-20T12:17:49.408Z,2.50
2023-06-20T12:20:32.996Z,2.22
2023-06-20T12:23:04.000Z,2.25
2023-06-20T12:25:33.171Z,2.17
2023-06-20T12:28:02.639Z,2.85
2023-06-20T12:30:31.997Z,2.90
2023-06-20T12:33:04.131Z,2.97
2023-06-20T12:35:31.903Z,2.53
2023-06-20T12:37:59.748Z,2.22
2023-06-20T12:40:27.802Z,2.40
2023-06-20T12:42:55.624Z,2.00
2023-06-20T12:45:23.290Z,2.22
2023-06-20T12:47:50.982Z,2.40
2023-06-20T12:50:18.760Z,2.20
2023-06-20T12:52:46.598Z,1.73
2023-06-20T12:55:15.055Z,2.00
2023-06-20T12:57:43.043Z,2.20
2023-06-20T13:00:12.079Z,1.80
2023-06-20T13:02:40.302Z,2.30
2023-06-20T13:05:11.313Z,2.80
2023-06-20T13:07:39.382Z,3.08
2023-06-20T13:10:07.800Z,3.58
2023-06-20T13:12:36.337Z,3.20
2023-06-20T13:15:08.052Z,3.72
2023-06-20T13:17:40.297Z,3.83
2023-06-20T13:20:08.736Z,2.90
2023-06-20T13:22:36.566Z,2.05
2023-06-20T13:25:04.781Z,2.17
2023-06-20T13:27:32.329Z,2.20
2023-06-20T13:30:00.015Z,2.38
2023-06-20T13:32:27.898Z,2.10
2023-06-20T13:34:55.565Z,1.83
2023-06-20T13:37:23.429Z,2.03
2023-06-20T13:39:51.318Z,1.67
2023-06-20T13:42:18.896Z,1.73
2023-06-20T13:44:46.457Z,1.92
2023-06-20T13:47:14.559Z,1.60
2023-06-20T13:49:42.414Z,1.27
2023-06-20T13:52:10.704Z,1.48
2023-06-20T13:54:38.256Z,1.50
2023-06-20T13:57:06.204Z,1.25
2023-06-20T13:59:34.026Z,1.65
2023-06-20T14:02:01.948Z,1.65
2023-06-20T14:04:29.689Z,1.27
2023-06-20T14:06:57.664Z,1.52
2023-06-20T14:09:25.332Z,1.55
2023-06-20T14:11:53.111Z,1.67
2023-06-20T14:14:22.348Z,1.90
2023-06-20T14:16:50.650Z,1.92
2023-06-20T14:19:18.292Z,2.45
2023-06-20T14:21:46.483Z,2.35
2023-06-20T14:24:14.624Z,2.35
2023-06-20T14:26:42.830Z,2.80
2023-06-20T14:29:13.144Z,3.33
2023-06-20T14:31:41.223Z,3.25
2023-06-20T14:34:08.922Z,2.72
2023-06-20T14:36:38.836Z,3.55
2023-06-20T14:39:06.473Z,2.83
2023-06-20T14:41:34.486Z,3.15
2023-06-20T14:44:02.041Z,4.55
2023-06-20T14:46:29.781Z,3.58
2023-06-20T14:48:57.443Z,3.20
2023-06-20T14:51:25.238Z,3.30
2023-06-20T14:53:53.204Z,3.22
2023-06-20T14:56:21.304Z,3.47
2023-06-20T14:58:48.860Z,3.92
2023-06-20T15:01:16.523Z,3.70
2023-06-20T15:03:44.095Z,3.95
2023-06-20T15:06:11.717Z,4.30
2023-06-20T15:08:39.383Z,3.92
2023-06-20T15:11:07.037Z,4.70
2023-06-20T15:13:34.878Z,4.50
2023-06-20T15:16:02.902Z,3.80
2023-06-20T15:18:30.536Z,4.38
2023-06-20T15:20:58.200Z,3.90
2023-06-20T15:23:25.733Z,4.32
2023-06-20T15:25:53.237Z,4.07
2023-06-20T15:28:20.900Z,4.50
2023-06-20T15:30:48.586Z,4.10
2023-06-20T15:33:16.498Z,3.53
2023-06-20T15:35:47.332Z,4.35
2023-06-20T15:38:15.179Z,4.63
2023-06-20T15:40:43.761Z,4.10
2023-06-20T15:43:11.718Z,4.70
2023-06-20T15:45:40.483Z,4.57
2023-06-20T15:48:10.735Z,4.40
2023-06-20T15:50:38.333Z,4.18
2023-06-20T15:53:07.029Z,4.57
2023-06-20T15:55:34.555Z,4.50
2023-06-20T15:58:02.121Z,4.93
2023-06-20T16:00:29.785Z,4.03
2023-06-20T16:02:58.139Z,3.83
2023-06-20T16:05:25.794Z,4.75
2023-06-20T16:07:53.481Z,5.60
2023-06-20T16:10:21.478Z,5.25
2023-06-20T16:12:49.762Z,4.90
2023-06-20T16:15:17.433Z,4.75
2023-06-20T16:17:45.502Z,5.00
2023-06-20T16:20:13.317Z,4.78
2023-06-20T16:22:41.282Z,5.25
2023-06-20T16:25:09.351Z,4.63
2023-06-20T16:27:37.718Z,4.50
2023-06-20T16:30:06.008Z,5.18
2023-06-20T16:32:34.346Z,4.75
2023-06-20T16:35:03.438Z,4.20
2023-06-20T16:37:31.049Z,4.32
2023-06-20T16:39:59.847Z,5.00
2023-06-20T16:42:27.524Z,4.00
2023-06-20T16:44:55.190Z,4.32
2023-06-20T16:47:23.172Z,3.92
2023-06-20T16:49:50.712Z,3.75
2023-06-20T16:52:18.423Z,3.95
2023-06-20T16:54:45.981Z,3.50
2023-06-20T16:57:13.663Z,3.70
2023-06-20T16:59:43.362Z,3.35
2023-06-20T17:02:13.239Z,3.90
2023-06-20T17:04:41.019Z,3.17
2023-06-20T17:07:08.694Z,4.20
2023-06-20T17:09:36.307Z,4.03
2023-06-20T17:12:04.397Z,4.00
2023-06-20T17:14:32.663Z,2.88
2023-06-20T17:17:00.859Z,3.53
2023-06-20T17:19:28.942Z,4.65
2023-06-20T17:22:06.702Z,3.80
2023-06-20T17:24:42.146Z,3.40
2023-06-20T17:27:12.219Z,2.88
2023-06-20T17:29:43.058Z,4.13
2023-06-20T17:32:11.389Z,3.70
2023-06-20T17:34:39.073Z,4.13
2023-06-20T17:37:07.168Z,3.30
2023-06-20T17:39:35.205Z,3.45
2023-06-20T17:42:02.900Z,3.35
2023-06-20T17:44:30.769Z,3.53
2023-06-20T17:46:59.153Z,3.38
2023-06-20T17:49:26.864Z,3.47
2023-06-20T17:51:54.863Z,4.95
2023-06-20T17:54:22.693Z,4.13
2023-06-20T17:56:50.651Z,3.38
2023-06-20T17:59:19.488Z,3.75
2023-06-20T18:01:47.838Z,3.60
2023-06-20T18:04:15.811Z,3.20
2023-06-20T18:06:43.674Z,3.95
2023-06-20T18:09:11.388Z,3.30
2023-06-20T18:11:39.077Z,3.15
2023-06-20T18:14:06.995Z,4.22
2023-06-20T18:16:34.701Z,3.10
2023-06-20T18:19:02.914Z,4.38
2023-06-20T18:21:30.881Z,3.78
2023-06-20T18:23:58.718Z,4.20
2023-06-20T18:26:26.797Z,3.70
2023-06-20T18:28:55.274Z,3.80
2023-06-20T18:31:22.866Z,3.90
2023-06-20T18:33:50.728Z,4.20
2023-06-20T18:36:18.473Z,4.47
2023-06-20T18:38:46.350Z,4.78
2023-06-20T18:41:14.427Z,4.78
2023-06-20T18:43:43.011Z,4.28
2023-06-20T18:46:10.642Z,4.47
2023-06-20T18:48:38.518Z,4.70
2023-06-20T18:51:06.491Z,4.70
2023-06-20T18:53:34.241Z,4.45
2023-06-20T18:56:01.861Z,4.47
2023-06-20T18:58:31.285Z,4.57
2023-06-20T19:01:00.602Z,4.65
2023-06-20T19:03:28.911Z,4.95
2023-06-20T19:05:56.471Z,4.80
2023-06-20T19:08:24.234Z,4.22
2023-06-20T19:10:51.978Z,4.70
2023-06-20T19:13:19.615Z,4.38
2023-06-20T19:15:47.255Z,3.90
2023-06-20T19:18:15.235Z,3.95
2023-06-20T19:20:42.931Z,3.75
2023-06-20T19:23:10.490Z,4.10
2023-06-20T19:25:38.662Z,3.85
2023-06-20T19:28:08.092Z,4.38
2023-06-20T19:30:35.829Z,4.00
2023-06-20T19:33:06.481Z,3.47
2023-06-20T19:35:34.221Z,4.50
2023-06-20T19:38:02.999Z,4.43
2023-06-20T19:40:30.809Z,3.88
2023-06-20T19:42:58.779Z,4.18
2023-06-20T19:45:34.028Z,3.90
2023-06-20T19:48:02.771Z,3.80
2023-06-20T19:50:30.526Z,4.65
2023-06-20T19:52:59.706Z,4.35
2023-06-20T19:55:27.456Z,4.80
2023-06-20T19:57:55.164Z,4.22
2023-06-20T20:00:23.227Z,4.75
2023-06-20T20:02:51.498Z,4.53
2023-06-20T20:05:19.285Z,4.65
2023-06-20T20:07:47.037Z,4.65
2023-06-20T20:10:14.612Z,4.55
2023-06-20T20:12:42.830Z,4.72
2023-06-20T20:15:11.766Z,5.43
2023-06-20T20:17:39.773Z,4.95
2023-06-20T20:20:08.136Z,4.90
2023-06-20T20:22:37.092Z,5.32
2023-06-20T20:27:35.474Z,4.53
2023-06-20T20:30:03.087Z,4.68
2023-06-20T20:32:32.064Z,5.78
2023-06-20T20:34:59.836Z,3.78
2023-06-20T20:37:27.395Z,3.97
2023-06-20T20:39:56.568Z,4.63
2023-06-20T20:42:24.413Z,3.88
2023-06-20T20:44:51.951Z,4.45
2023-06-20T20:47:19.560Z,4.15
2023-06-20T20:49:47.115Z,4.55
2023-06-20T20:52:14.822Z,5.03
2023-06-20T20:54:42.482Z,4.68
2023-06-20T20:57:10.143Z,5.35
2023-06-20T20:59:37.759Z,4.63
2023-06-20T21:02:06.864Z,4.85
2023-06-20T21:04:36.329Z,6.43
2023-06-20T21:07:04.062Z,5.82
2023-06-20T21:09:32.302Z,5.38
2023-06-20T21:11:59.906Z,5.38
2023-06-20T21:14:27.469Z,5.32
2023-06-20T21:16:55.090Z,5.15
2023-06-20T21:19:24.529Z,4.43
2023-06-20T21:21:52.379Z,3.70
2023-06-20T21:24:20.147Z,3.25
2023-06-20T21:26:48.039Z,3.33
2023-06-20T21:29:15.750Z,3.55
2023-06-20T21:31:43.362Z,4.63
2023-06-20T21:34:11.018Z,3.78
2023-06-20T21:36:38.988Z,3.78
2023-06-20T21:39:07.148Z,4.55
2023-06-20T21:41:34.772Z,4.57
2023-06-20T21:44:02.492Z,4.00
2023-06-20T21:46:30.521Z,4.53
2023-06-20T21:48:58.590Z,4.15
2023-06-20T21:51:26.196Z,4.05
2023-06-20T21:53:54.681Z,4.50
2023-06-20T21:56:22.241Z,4.63
2023-06-20T21:58:50.227Z,4.63
2023-06-20T22:01:17.837Z,5.13
2023-06-20T22:03:47.235Z,5.07
2023-06-20T22:06:14.948Z,4.97
2023-06-20T22:08:43.093Z,5.32
2023-06-20T22:11:10.752Z,5.47
2023-06-20T22:13:38.421Z,4.97
2023-06-20T22:16:06.394Z,4.82
2023-06-20T22:18:34.412Z,4.55
2023-06-20T22:21:04.582Z,4.80
2023-06-20T22:23:32.217Z,5.07
2023-06-20T22:26:00.413Z,4.10
2023-06-20T22:28:28.734Z,4.50
2023-06-20T22:30:56.620Z,4.20
2023-06-20T22:33:25.578Z,4.38
2023-06-20T22:35:53.817Z,4.67
2023-06-20T22:38:21.372Z,4.35
2023-06-20T22:40:50.523Z,4.00
2023-06-20T22:43:18.176Z,4.30
2023-06-20T22:45:47.078Z,4.30
2023-06-20T22:48:17.859Z,4.50
2023-06-20T22:50:48.106Z,4.10
2023-06-20T22:53:16.278Z,4.32
2023-06-20T22:55:44.203Z,3.75
2023-06-20T22:58:11.904Z,4.70
2023-06-20T23:00:39.779Z,4.28
2023-06-20T23:03:07.776Z,4.20
2023-06-20T23:05:35.422Z,4.28
2023-06-20T23:08:03.154Z,4.70
2023-06-20T23:10:31.127Z,4.35
2023-06-20T23:12:59.151Z,4.22
2023-06-20T23:15:26.693Z,4.13
2023-06-20T23:17:54.363Z,4.70
2023-06-20T23:20:22.396Z,4.43
2023-06-20T23:22:50.034Z,3.92
2023-06-20T23:25:18.047Z,3.28
2023-06-20T23:27:46.376Z,3.97
2023-06-20T23:30:14.181Z,4.93
2023-06-20T23:32:42.253Z,3.65
2023-06-20T23:35:10.091Z,3.78
2023-06-20T23:37:41.080Z,3.67
2023-06-20T23:40:13.910Z,3.40
2023-06-20T23:42:42.201Z,3.35
2023-06-20T23:45:10.559Z,3.88
2023-06-20T23:47:38.877Z,3.83
2023-06-20T23:50:07.480Z,3.78
2023-06-20T23:52:36.633Z,3.88
2023-06-20T23:55:04.612Z,3.67
2023-06-20T23:57:34.599Z,3.13
